Time;durP1;ratioP1;P1;durP2;ratioP2;P2;SDS_P1;SDS_P2;PMS_P1;PMS_P2;Temp;Humidity;BMP_temperature;BMP_pressure;BME280_temperature;BME280_humidity;BME280_pressure;Samples;Min_cycle;Max_cycle;Signal;HPM_P1;HPM_P2
2020/12/01 00:02:08;;;;;;;34.25;16.60;;;5.90;93.90;;;;;;5020494;28;20040;-81
2020/12/01 00:04:34;;;;;;;25.95;14.40;;;5.90;93.90;;;;;;5037723;28;20021;-82
2020/12/01 00:07:00;;;;;;;29.52;15.05;;;5.90;93.90;;;;;;5021106;28;20032;-82
2020/12/01 00:09:25;;;;;;;34.85;17.13;;;5.90;93.90;;;;;;5021034;28;20083;-82
2020/12/01 00:11:51;;;;;;;43.22;20.95;;;6.00;93.90;;;;;;5055464;28;20053;-82
2020/12/01 00:14:17;;;;;;;37.42;18.05;;;5.90;93.90;;;;;;5021215;28;20035;-82
2020/12/01 00:16:45;;;;;;;34.63;19.02;;;6.00;94.00;;;;;;5020977;28;20123;-82
2020/12/01 00:19:11;;;;;;;32.88;17.48;;;6.00;94.30;;;;;;5037535;28;20021;-81
2020/12/01 00:21:37;;;;;;;30.38;16.98;;;6.00;94.00;;;;;;5037298;28;20037;-81
2020/12/01 00:24:03;;;;;;;28.33;15.48;;;6.00;94.00;;;;;;5037713;28;20040;-82
2020/12/01 00:26:29;;;;;;;36.95;18.38;;;6.00;94.00;;;;;;5017412;28;20087;-81
2020/12/01 00:28:54;;;;;;;38.47;18.92;;;6.00;94.00;;;;;;5017611;28;20033;-81
2020/12/01 00:31:20;;;;;;;38.20;19.02;;;6.00;94.00;;;;;;5026234;28;20045;-81
2020/12/01 00:33:46;;;;;;;34.28;18.92;;;6.00;94.00;;;;;;5037328;28;20029;-80
2020/12/01 00:36:12;;;;;;;32.35;18.38;;;6.00;94.00;;;;;;5036744;28;20017;-80
2020/12/01 00:38:38;;;;;;;31.45;18.00;;;6.10;94.10;;;;;;5020263;28;20078;-80
2020/12/01 00:41:03;;;;;;;37.03;19.08;;;6.10;94.10;;;;;;5020795;28;20048;-80
2020/12/01 00:43:29;;;;;;;36.72;19.83;;;6.10;94.00;;;;;;5037057;28;20031;-80
2020/12/01 00:45:55;;;;;;;29.25;18.15;;;6.10;94.00;;;;;;5037179;28;20021;-80
2020/12/01 00:48:21;;;;;;;31.85;17.95;;;6.10;94.00;;;;;;5036887;28;20547;-80
2020/12/01 00:50:47;;;;;;;35.22;19.25;;;6.10;94.00;;;;;;5036655;28;20033;-80
2020/12/01 00:53:13;;;;;;;39.10;19.95;;;6.10;94.00;;;;;;5036710;28;20036;-81
2020/12/01 00:55:39;;;;;;;39.72;20.10;;;6.20;94.10;;;;;;5036698;28;20037;-80
2020/12/01 00:58:04;;;;;;;44.58;22.70;;;6.20;94.00;;;;;;5036613;28;20033;-80
2020/12/01 01:00:31;;;;;;;49.72;25.25;;;6.20;94.00;;;;;;5036502;28;20072;-80
2020/12/01 01:02:57;;;;;;;62.63;28.05;;;6.20;94.00;;;;;;5020152;28;20035;-80
2020/12/01 01:05:23;;;;;;;45.17;23.08;;;6.30;94.10;;;;;;5019288;28;20025;-80
2020/12/01 01:07:49;;;;;;;51.97;26.17;;;6.30;94.10;;;;;;5053096;28;20025;-80
2020/12/01 01:10:19;;;;;;;56.10;27.35;;;6.30;94.10;;;;;;5034705;28;20033;-80
2020/12/01 01:12:45;;;;;;;60.90;27.75;;;6.30;94.10;;;;;;5035654;28;20024;-80
2020/12/01 01:15:11;;;;;;;65.25;31.58;;;6.30;94.10;;;;;;5034895;28;20100;-80
2020/12/01 01:17:36;;;;;;;61.75;29.20;;;6.30;94.20;;;;;;5053242;28;20112;-80
2020/12/01 01:20:04;;;;;;;50.40;25.08;;;6.40;94.20;;;;;;5053566;28;20457;-80
2020/12/01 01:22:29;;;;;;;45.33;23.35;;;6.30;94.20;;;;;;5035293;28;20063;-80
2020/12/01 01:24:55;;;;;;;71.20;31.23;;;6.40;94.20;;;;;;5019664;28;20060;-80
2020/12/01 01:27:20;;;;;;;52.70;26.75;;;6.40;94.20;;;;;;5035676;28;20037;-80
2020/12/01 01:29:46;;;;;;;58.80;28.50;;;6.40;94.20;;;;;;5019505;28;20033;-80
2020/12/01 01:32:12;;;;;;;79.05;34.95;;;6.40;94.20;;;;;;5035860;28;20157;-81
2020/12/01 01:34:37;;;;;;;62.67;29.38;;;6.50;94.30;;;;;;5036204;28;20474;-80
2020/12/01 01:37:04;;;;;;;56.08;29.40;;;6.50;94.40;;;;;;5035616;28;20105;-80
2020/12/01 01:39:30;;;;;;;52.60;27.80;;;6.50;94.40;;;;;;5053553;28;20508;-81
2020/12/01 01:41:56;;;;;;;68.55;31.17;;;6.50;94.50;;;;;;5019454;28;20056;-81
2020/12/01 01:44:23;;;;;;;70.90;33.72;;;6.60;94.50;;;;;;5019640;28;20036;-81
2020/12/01 01:46:55;;;;;;;68.53;31.38;;;6.60;94.60;;;;;;5053773;28;20025;-80
2020/12/01 01:49:28;;;;;;;40.83;23.38;;;6.60;94.60;;;;;;5053775;28;20013;-81
2020/12/01 01:51:56;;;;;;;36.92;18.95;;;6.60;94.70;;;;;;5035764;28;20059;-81
2020/12/01 01:54:24;;;;;;;28.15;12.80;;;6.60;94.70;;;;;;5053422;28;20028;-81
2020/12/01 01:56:55;;;;;;;16.45;8.35;;;6.70;94.70;;;;;;5053677;28;20052;-81
2020/12/01 01:59:22;;;;;;;12.85;7.00;;;6.70;94.60;;;;;;5022104;28;20049;-81
2020/12/01 02:01:50;;;;;;;12.18;5.72;;;6.70;94.50;;;;;;5033714;28;20049;-81
2020/12/01 02:04:17;;;;;;;7.57;3.33;;;6.70;94.40;;;;;;5033648;28;20021;-81
2020/12/01 02:06:49;;;;;;;8.27;3.90;;;6.70;94.30;;;;;;5015761;28;20124;-81
2020/12/01 02:09:32;;;;;;;11.23;3.13;;;6.70;94.20;;;;;;5033364;28;20065;-81
2020/12/01 02:12:00;;;;;;;9.07;3.13;;;6.70;94.20;;;;;;5015699;28;20022;-81
2020/12/01 02:14:42;;;;;;;5.72;1.83;;;6.70;94.20;;;;;;5033402;28;20093;-81
2020/12/01 02:17:25;;;;;;;9.90;2.03;;;6.70;94.40;;;;;;5033337;28;20026;-81
2020/12/01 02:19:54;;;;;;;12.35;1.92;;;6.70;94.20;;;;;;5029149;28;20064;-81
2020/12/01 02:22:22;;;;;;;12.97;2.00;;;6.70;94.20;;;;;;5019174;28;20033;-81
2020/12/01 02:24:50;;;;;;;7.23;1.77;;;6.70;94.20;;;;;;5052997;28;20537;-81
2020/12/01 02:27:18;;;;;;;5.25;2.08;;;6.70;94.30;;;;;;5035352;28;20051;-80
2020/12/01 02:29:47;;;;;;;10.75;1.73;;;6.60;94.30;;;;;;5053026;28;20037;-80
2020/12/01 02:32:13;;;;;;;14.60;2.17;;;6.60;94.30;;;;;;5052780;28;20402;-80
2020/12/01 02:34:43;;;;;;;7.43;1.60;;;6.70;94.40;;;;;;5038351;28;20092;-80
2020/12/01 02:37:15;;;;;;;5.72;1.40;;;6.60;94.30;;;;;;5029719;28;20112;-80
2020/12/01 02:39:41;;;;;;;7.88;1.63;;;6.60;94.30;;;;;;5053058;28;20021;-80
2020/12/01 02:42:11;;;;;;;6.25;1.25;;;6.60;94.30;;;;;;5018679;28;20021;-81
2020/12/01 02:44:36;;;;;;;5.82;1.35;;;6.60;94.30;;;;;;5035123;28;20466;-81
2020/12/01 02:47:05;;;;;;;8.20;1.27;;;6.60;94.30;;;;;;5049528;28;20033;-80
2020/12/01 02:49:31;;;;;;;5.70;1.42;;;6.70;94.30;;;;;;5050077;28;20013;-80
2020/12/01 02:51:57;;;;;;;7.90;1.10;;;6.70;94.30;;;;;;5018637;28;20037;-80
2020/12/01 02:54:23;;;;;;;6.18;1.40;;;6.70;94.30;;;;;;5035367;28;20425;-80
2020/12/01 02:56:48;;;;;;;7.65;1.30;;;6.60;94.30;;;;;;5052945;28;20020;-81
2020/12/01 02:59:15;;;;;;;4.85;1.00;;;6.70;94.30;;;;;;5035191;28;20511;-81
2020/12/01 03:01:41;;;;;;;10.65;1.58;;;6.70;94.30;;;;;;5015357;28;20140;-78
2020/12/01 03:04:06;;;;;;;11.77;1.50;;;6.70;94.30;;;;;;5035250;28;20116;-78
2020/12/01 03:06:32;;;;;;;9.98;1.10;;;6.60;94.20;;;;;;5034786;28;20122;-77
2020/12/01 03:08:58;;;;;;;5.32;1.00;;;6.70;94.30;;;;;;5035085;28;20129;-78
2020/12/01 03:11:25;;;;;;;9.15;1.33;;;6.60;94.20;;;;;;5034922;28;20124;-78
2020/12/01 03:13:51;;;;;;;7.40;1.15;;;6.70;94.20;;;;;;5035102;28;20032;-77
2020/12/01 03:16:16;;;;;;;3.95;1.10;;;6.60;94.20;;;;;;5018794;28;20032;-78
2020/12/01 03:18:45;;;;;;;10.23;1.40;;;6.60;94.20;;;;;;5031650;28;20021;-78
2020/12/01 03:21:14;;;;;;;9.00;1.20;;;6.60;94.20;;;;;;5040024;28;20021;-78
2020/12/01 03:23:41;;;;;;;8.50;1.65;;;6.60;94.20;;;;;;5035024;28;20029;-78
2020/12/01 03:26:08;;;;;;;17.17;1.88;;;6.60;94.20;;;;;;5034772;28;20032;-77
2020/12/01 03:28:34;;;;;;;8.05;1.80;;;6.60;94.30;;;;;;5052489;28;20480;-80
2020/12/01 03:30:59;;;;;;;13.10;1.52;;;6.60;94.20;;;;;;5018014;28;20087;-81
2020/12/01 03:33:25;;;;;;;7.03;1.35;;;6.60;94.30;;;;;;5018286;28;20436;-81
2020/12/01 03:35:52;;;;;;;6.03;1.20;;;6.60;94.30;;;;;;5005912;28;20036;-81
2020/12/01 03:38:17;;;;;;;9.38;1.45;;;6.60;94.30;;;;;;5034737;28;20584;-81
2020/12/01 03:40:43;;;;;;;12.95;1.70;;;6.60;94.30;;;;;;5028584;28;20053;-81
2020/12/01 03:43:10;;;;;;;7.95;1.42;;;6.60;94.20;;;;;;5056161;28;20025;-81
2020/12/01 03:45:36;;;;;;;8.68;1.63;;;6.60;94.30;;;;;;5037913;28;20477;-81
2020/12/01 03:48:01;;;;;;;11.20;1.83;;;6.60;94.30;;;;;;5021682;28;20062;-81
2020/12/01 03:50:28;;;;;;;11.98;1.80;;;6.60;94.30;;;;;;5021493;28;20029;-81
2020/12/01 03:52:54;;;;;;;19.73;2.15;;;6.60;94.30;;;;;;5037865;28;20487;-80
2020/12/01 03:55:23;;;;;;;10.48;1.77;;;6.60;94.30;;;;;;5038013;28;20027;-80
2020/12/01 03:57:48;;;;;;;15.88;1.88;;;6.60;94.30;;;;;;5055893;28;20032;-81
2020/12/01 04:00:22;;;;;;;15.57;2.28;;;6.60;94.30;;;;;;5021428;28;20037;-80
2020/12/01 04:02:48;;;;;;;20.08;2.10;;;6.60;94.30;;;;;;5037632;28;20025;-80
2020/12/01 04:05:15;;;;;;;13.68;2.78;;;6.60;94.60;;;;;;5037621;28;20047;-80
2020/12/01 04:07:41;;;;;;;18.75;2.80;;;6.60;94.40;;;;;;5054557;28;20036;-80
2020/12/01 04:10:07;;;;;;;14.68;2.67;;;6.70;94.40;;;;;;5017824;28;20033;-80
2020/12/01 04:12:33;;;;;;;25.83;2.58;;;6.70;94.40;;;;;;5039118;28;20027;-80
2020/12/01 04:15:00;;;;;;;19.20;2.65;;;6.70;94.50;;;;;;5037654;28;20498;-81
2020/12/01 04:17:26;;;;;;;14.50;2.67;;;6.70;94.50;;;;;;5055351;28;20124;-80
2020/12/01 04:19:52;;;;;;;21.13;2.95;;;6.70;94.50;;;;;;5037260;28;20033;-80
2020/12/01 04:22:18;;;;;;;27.05;3.88;;;6.70;94.50;;;;;;5037133;28;20114;-80
2020/12/01 04:24:44;;;;;;;18.73;2.97;;;6.80;94.50;;;;;;5020897;28;20059;-80
2020/12/01 04:27:10;;;;;;;35.67;3.40;;;6.80;94.80;;;;;;5036561;28;20025;-80
2020/12/01 04:29:36;;;;;;;21.95;3.42;;;6.70;94.50;;;;;;5016935;28;20037;-81
2020/12/01 04:32:03;;;;;;;33.58;4.05;;;6.80;94.50;;;;;;5001258;28;20453;-80
2020/12/01 04:34:29;;;;;;;26.00;3.28;;;6.80;94.50;;;;;;5017679;28;20025;-80
2020/12/01 04:36:55;;;;;;;21.45;2.97;;;6.80;94.50;;;;;;5052841;28;20021;-80
2020/12/01 04:39:21;;;;;;;26.63;3.60;;;6.80;94.50;;;;;;5035771;28;20116;-80
2020/12/01 04:41:47;;;;;;;22.80;3.25;;;6.80;94.50;;;;;;5036703;28;20143;-80
2020/12/01 04:44:30;;;;;;;21.45;2.80;;;6.80;94.50;;;;;;5036726;28;20163;-80
2020/12/01 04:46:59;;;;;;;23.45;3.47;;;6.70;94.50;;;;;;5054983;28;20063;-80
2020/12/01 04:49:59;;;;;;;30.85;2.95;;;6.70;94.50;;;;;;5036847;28;20120;-80
2020/12/01 04:52:37;;;;;;;26.05;3.33;;;6.70;94.50;;;;;;5036847;28;20478;-80
2020/12/01 04:55:24;;;;;;;22.20;3.38;;;6.60;94.50;;;;;;5054477;28;20175;-80
2020/12/01 04:57:55;;;;;;;23.50;3.20;;;6.60;94.50;;;;;;5033448;28;20425;-80
2020/12/01 05:00:32;;;;;;;15.77;2.33;;;6.60;94.50;;;;;;5016829;28;20087;-80
2020/12/01 05:03:22;;;;;;;21.75;3.60;;;6.60;94.50;;;;;;5016875;28;20030;-80
2020/12/01 05:06:24;;;;;;;16.20;2.65;;;6.60;94.50;;;;;;5016674;28;20544;-80
2020/12/01 05:08:57;;;;;;;26.88;3.13;;;6.60;94.50;;;;;;5034500;28;20030;-80
2020/12/01 05:11:53;;;;;;;30.10;4.18;;;6.50;94.50;;;;;;5016621;28;20184;-80
2020/12/01 05:14:30;;;;;;;23.48;3.35;;;6.50;94.60;;;;;;5034259;28;20028;-80
2020/12/01 05:17:14;;;;;;;46.67;4.85;;;6.50;94.60;;;;;;5034232;28;20032;-80
2020/12/01 05:19:47;;;;;;;28.98;4.18;;;6.50;94.70;;;;;;5016394;28;20024;-80
2020/12/01 05:22:16;;;;;;;40.60;4.15;;;6.50;94.60;;;;;;5016390;28;20029;-80
2020/12/01 05:24:48;;;;;;;25.50;2.97;;;6.40;94.70;;;;;;5034107;28;20450;-80
2020/12/01 05:27:21;;;;;;;20.92;2.90;;;6.40;94.70;;;;;;5016281;28;20471;-80
2020/12/01 05:29:56;;;;;;;22.40;3.45;;;6.50;94.70;;;;;;5034056;28;20061;-80
2020/12/01 05:32:37;;;;;;;20.00;2.90;;;6.40;94.60;;;;;;5033754;28;20387;-80
2020/12/01 05:35:19;;;;;;;34.83;4.15;;;6.40;94.60;;;;;;5033566;28;20057;-80
2020/12/01 05:37:56;;;;;;;29.05;3.20;;;6.40;94.60;;;;;;5015869;28;20099;-80
2020/12/01 05:40:23;;;;;;;24.88;3.92;;;6.30;94.60;;;;;;5000132;28;20029;-80
2020/12/01 05:42:49;;;;;;;28.25;3.35;;;6.30;94.60;;;;;;5049277;28;20033;-80
2020/12/01 05:45:34;;;;;;;40.22;5.05;;;6.40;94.70;;;;;;5036051;28;20060;-80
2020/12/01 05:48:40;;;;;;;25.40;3.90;;;6.40;94.70;;;;;;5035332;28;20115;-80
2020/12/01 05:51:15;;;;;;;16.27;3.40;;;6.30;94.70;;;;;;4986615;28;20030;-80
2020/12/01 05:53:41;;;;;;;22.40;2.90;;;6.40;94.70;;;;;;4955477;28;20050;-80
2020/12/01 05:56:18;;;;;;;15.98;3.13;;;6.40;95.00;;;;;;4988646;28;20033;-80
2020/12/01 05:58:47;;;;;;;19.70;3.47;;;6.40;94.70;;;;;;5052950;28;20025;-80
2020/12/01 06:01:13;;;;;;;20.63;3.15;;;6.40;94.60;;;;;;5052537;28;20033;-80
2020/12/01 06:04:04;;;;;;;22.75;4.13;;;6.50;94.60;;;;;;5019050;28;20037;-80
2020/12/01 06:06:55;;;;;;;28.08;4.35;;;6.50;94.60;;;;;;5035367;28;20094;-80
2020/12/01 06:09:34;;;;;;;26.98;4.13;;;6.50;94.60;;;;;;5052997;28;20086;-80
2020/12/01 06:12:08;;;;;;;18.38;3.13;;;6.50;94.60;;;;;;5033665;28;20028;-80
2020/12/01 06:14:42;;;;;;;25.25;3.90;;;6.60;94.60;;;;;;5033363;28;20470;-80
2020/12/01 06:17:20;;;;;;;27.15;4.38;;;6.60;94.60;;;;;;4999730;28;20037;-80
2020/12/01 06:20:13;;;;;;;24.55;4.60;;;6.60;94.50;;;;;;5015608;28;20112;-81
2020/12/01 06:22:51;;;;;;;26.25;4.55;;;6.70;94.60;;;;;;5015516;28;20025;-80
2020/12/01 06:25:37;;;;;;;35.38;5.30;;;6.70;94.60;;;;;;5019700;28;20028;-80
2020/12/01 06:28:19;;;;;;;18.08;4.03;;;6.70;94.60;;;;;;5052808;28;20055;-80
2020/12/01 06:31:29;;;;;;;18.75;3.63;;;6.70;94.50;;;;;;5052727;28;20239;-80
2020/12/01 06:34:02;;;;;;;25.90;4.10;;;6.70;94.50;;;;;;5046060;28;20468;-80
2020/12/01 06:36:55;;;;;;;19.25;4.25;;;6.70;94.40;;;;;;5035039;28;20066;-80
2020/12/01 06:39:27;;;;;;;14.73;4.40;;;6.80;94.50;;;;;;5052794;28;20024;-80
2020/12/01 06:42:09;;;;;;;21.20;3.60;;;6.80;94.50;;;;;;5033243;28;20038;-79
2020/12/01 06:44:36;;;;;;;27.80;6.03;;;6.90;94.50;;;;;;5015059;28;20466;-78
2020/12/01 06:47:01;;;;;;;27.58;5.40;;;6.80;94.70;;;;;;5015408;28;20049;-78
2020/12/01 06:49:33;;;;;;;16.15;4.00;;;6.90;94.40;;;;;;5015329;28;20382;-78
2020/12/01 06:52:03;;;;;;;19.80;4.00;;;6.90;94.40;;;;;;5052268;28;20037;-78
2020/12/01 06:54:29;;;;;;;35.03;6.25;;;6.90;94.40;;;;;;5052955;28;20036;-78
2020/12/01 06:57:20;;;;;;;19.30;5.32;;;6.90;94.40;;;;;;5034208;28;20026;-78
2020/12/01 06:59:46;;;;;;;23.88;5.13;;;6.90;94.50;;;;;;5041399;28;20529;-78
2020/12/01 07:02:21;;;;;;;15.15;4.63;;;6.80;94.40;;;;;;5034502;28;20025;-78
2020/12/01 07:04:47;;;;;;;21.13;5.32;;;6.90;94.50;;;;;;5052155;28;20424;-78
2020/12/01 07:07:29;;;;;;;35.08;5.75;;;6.90;94.40;;;;;;5033732;28;20383;-78
2020/12/01 07:09:55;;;;;;;37.67;6.70;;;6.90;94.50;;;;;;5051926;28;20159;-78
2020/12/01 07:12:43;;;;;;;27.23;5.90;;;6.90;94.50;;;;;;5034832;28;20074;-79
2020/12/01 07:15:27;;;;;;;17.45;4.72;;;6.90;94.50;;;;;;5055780;28;20029;-78
2020/12/01 07:18:14;;;;;;;17.85;4.85;;;6.90;94.50;;;;;;5037988;28;20021;-78
2020/12/01 07:21:02;;;;;;;20.88;4.07;;;7.00;94.50;;;;;;5038468;28;20485;-79
2020/12/01 07:23:57;;;;;;;21.27;4.53;;;6.90;94.50;;;;;;5038644;28;20038;-79
2020/12/01 07:26:47;;;;;;;14.05;4.40;;;6.90;94.50;;;;;;5038468;28;20029;-79
2020/12/01 07:29:22;;;;;;;14.57;4.05;;;6.90;94.50;;;;;;5038288;28;20025;-78
2020/12/01 07:31:48;;;;;;;23.13;5.05;;;6.90;94.40;;;;;;5056167;28;20553;-78
2020/12/01 07:34:17;;;;;;;19.90;4.85;;;7.00;94.40;;;;;;5038481;28;20025;-78
2020/12/01 07:36:47;;;;;;;23.00;5.70;;;7.00;94.40;;;;;;5038492;28;20021;-78
2020/12/01 07:39:52;;;;;;;12.48;4.03;;;7.00;94.40;;;;;;5038361;28;20115;-78
2020/12/01 07:42:22;;;;;;;12.10;3.70;;;7.10;94.40;;;;;;5042996;28;20120;-78
2020/12/01 07:44:48;;;;;;;11.55;3.67;;;7.00;94.60;;;;;;5038016;28;20466;-78
2020/12/01 07:47:15;;;;;;;11.52;4.15;;;7.10;94.30;;;;;;5021615;28;20120;-79
2020/12/01 07:49:41;;;;;;;9.13;3.70;;;7.10;94.30;;;;;;5039135;28;20484;-80
2020/12/01 07:52:07;;;;;;;11.88;4.10;;;7.10;94.30;;;;;;5053721;28;20028;-74
2020/12/01 07:54:36;;;;;;;10.45;4.50;;;7.20;94.30;;;;;;5068451;28;20038;-75
2020/12/01 07:57:19;;;;;;;14.88;4.53;;;7.20;94.30;;;;;;5046780;28;20029;-74
2020/12/01 07:59:48;;;;;;;10.15;4.38;;;7.20;94.20;;;;;;5065606;28;20024;-75
2020/12/01 08:02:19;;;;;;;11.80;4.20;;;7.20;94.20;;;;;;5044684;28;20039;-75
2020/12/01 08:04:45;;;;;;;11.32;4.78;;;7.30;94.20;;;;;;5055391;28;20780;-75
2020/12/01 08:07:15;;;;;;;13.77;4.90;;;7.30;94.20;;;;;;5048827;28;20036;-75
2020/12/01 08:09:42;;;;;;;16.27;5.43;;;7.30;94.20;;;;;;5058829;28;20027;-75
2020/12/01 08:12:13;;;;;;;18.60;5.53;;;7.30;94.10;;;;;;5049197;28;20029;-75
2020/12/01 08:14:40;;;;;;;14.75;5.53;;;7.30;94.10;;;;;;5049616;28;20028;-75
2020/12/01 08:17:12;;;;;;;19.55;6.80;;;7.40;94.10;;;;;;5038804;28;20028;-75
2020/12/01 08:19:38;;;;;;;18.10;8.38;;;7.40;94.10;;;;;;5041385;28;20025;-75
2020/12/01 08:22:07;;;;;;;22.08;9.15;;;7.40;94.10;;;;;;5040601;28;20032;-76
2020/12/01 08:24:37;;;;;;;21.17;8.30;;;7.50;94.10;;;;;;5059714;28;20029;-75
2020/12/01 08:27:22;;;;;;;20.77;8.25;;;7.50;94.10;;;;;;5060189;28;20392;-75
2020/12/01 08:29:50;;;;;;;17.25;9.50;;;7.50;94.10;;;;;;5059721;28;20025;-75
2020/12/01 08:32:21;;;;;;;21.57;9.50;;;7.50;94.10;;;;;;5038807;28;20052;-75
2020/12/01 08:34:57;;;;;;;17.63;8.13;;;7.60;94.00;;;;;;5059995;28;20376;-75
2020/12/01 08:37:44;;;;;;;34.92;11.02;;;7.60;94.00;;;;;;5046167;28;20028;-74
2020/12/01 08:40:12;;;;;;;33.60;12.45;;;7.70;94.10;;;;;;5047423;28;20115;-74
2020/12/01 08:43:04;;;;;;;23.13;9.93;;;7.70;94.00;;;;;;5056780;28;20032;-74
2020/12/01 08:45:35;;;;;;;47.58;16.45;;;7.70;94.00;;;;;;5055928;28;20032;-75
2020/12/01 08:48:05;;;;;;;35.05;13.90;;;7.70;94.00;;;;;;5066139;28;20029;-75
2020/12/01 08:50:36;;;;;;;43.35;17.27;;;7.70;94.10;;;;;;5064985;28;20040;-74
2020/12/01 08:53:09;;;;;;;44.55;15.60;;;7.70;94.10;;;;;;5063337;28;20032;-75
2020/12/01 08:55:49;;;;;;;37.75;14.77;;;7.70;94.20;;;;;;5062305;28;20053;-75
2020/12/01 08:58:47;;;;;;;26.73;11.75;;;7.70;94.20;;;;;;5047083;28;20346;-75
2020/12/01 09:01:15;;;;;;;24.40;12.45;;;7.70;94.20;;;;;;5064776;28;20033;-75
2020/12/01 09:04:01;;;;;;;33.42;15.10;;;7.80;94.20;;;;;;5062782;28;20621;-74
2020/12/01 09:06:32;;;;;;;46.25;19.45;;;7.70;94.30;;;;;;5027485;28;20082;-75
2020/12/01 09:09:05;;;;;;;43.75;17.63;;;7.80;94.60;;;;;;5044805;28;20459;-74
2020/12/01 09:17:23;;;;;;;34.75;16.08;;;7.90;94.50;;;;;;5066462;28;20052;-74
2020/12/01 09:23:05;;;;;;;23.90;13.57;;;7.90;94.50;;;;;;5008649;28;20045;-75
2020/12/01 09:25:31;;;;;;;27.60;14.90;;;7.90;94.50;;;;;;5042891;28;20031;-74
2020/12/01 09:27:57;;;;;;;20.58;11.57;;;8.00;94.50;;;;;;5053850;28;20103;-75
2020/12/01 09:30:34;;;;;;;23.60;13.75;;;8.00;94.50;;;;;;5064100;28;20037;-75
2020/12/01 09:33:01;;;;;;;22.75;13.23;;;8.00;94.50;;;;;;5053553;28;20072;-75
2020/12/01 09:35:27;;;;;;;27.48;14.90;;;8.00;94.50;;;;;;5053017;28;20083;-75
2020/12/01 09:37:52;;;;;;;21.50;13.48;;;8.00;94.60;;;;;;5053677;28;20428;-75
2020/12/01 09:40:19;;;;;;;30.55;14.27;;;8.00;94.70;;;;;;5053617;28;20112;-75
2020/12/01 09:42:48;;;;;;;22.63;11.40;;;8.10;94.70;;;;;;5035936;28;20454;-75
2020/12/01 09:45:30;;;;;;;;;;;8.10;94.70;;;;;;5034856;28;20561;-75
2020/12/01 09:48:03;;;;;;;23.73;10.10;;;8.20;94.80;;;;;;5039933;28;19908;-82
2020/12/01 09:50:32;;;;;;;22.92;9.65;;;8.20;94.80;;;;;;5036799;28;20098;-82
2020/12/01 10:08:53;;;;;;;34.42;6.78;;;8.40;95.00;;;;;;5039141;28;20090;-78
2020/12/01 10:13:52;;;;;;;71.15;33.40;;;8.50;95.00;;;;;;5036603;28;20029;-79
2020/12/01 10:26:58;;;;;;;65.35;15.50;;;8.50;95.10;;;;;;5034562;28;20037;-77
2020/12/01 10:37:36;;;;;;;46.03;9.55;;;8.40;94.80;;;;;;5035529;28;20358;-81
2020/12/01 10:40:04;;;;;;;41.92;8.50;;;8.40;94.80;;;;;;5018772;28;20036;-81
2020/12/01 10:42:30;;;;;;;57.03;9.05;;;8.50;94.80;;;;;;5035050;28;20041;-81
2020/12/01 10:44:55;;;;;;;59.70;8.82;;;8.40;94.80;;;;;;5035352;28;20029;-81
2020/12/01 10:47:22;;;;;;;48.50;7.43;;;8.40;94.80;;;;;;5021215;28;20392;-81
2020/12/01 10:49:48;;;;;;;50.80;6.90;;;8.40;94.80;;;;;;5022857;28;20029;-81
2020/12/01 10:52:13;;;;;;;35.67;5.40;;;8.40;94.70;;;;;;5057215;28;20029;-81
2020/12/01 10:54:39;;;;;;;57.20;6.85;;;8.40;94.70;;;;;;5057241;28;20025;-81
2020/12/01 10:57:04;;;;;;;63.42;7.72;;;8.50;94.70;;;;;;5039054;28;20420;-81
2020/12/01 10:59:30;;;;;;;50.70;6.90;;;8.40;94.60;;;;;;5039030;28;20053;-81
2020/12/01 11:01:56;;;;;;;47.80;6.35;;;8.40;94.50;;;;;;5022587;28;20477;-81
2020/12/01 11:04:22;;;;;;;48.10;6.07;;;8.50;94.60;;;;;;5022375;28;20079;-81
2020/12/01 11:06:48;;;;;;;58.20;7.20;;;8.50;94.60;;;;;;5056689;28;20035;-81
2020/12/01 11:09:15;;;;;;;45.33;5.25;;;8.50;94.50;;;;;;5038906;28;20551;-80
2020/12/01 11:11:40;;;;;;;57.55;7.43;;;8.50;94.50;;;;;;5022254;28;20056;-81
2020/12/01 11:14:07;;;;;;;77.68;7.47;;;8.60;94.60;;;;;;5038770;28;20021;-81
2020/12/01 11:16:33;;;;;;;44.45;6.13;;;8.60;94.50;;;;;;5022225;28;20095;-81
2020/12/01 11:18:59;;;;;;;60.40;6.65;;;8.60;94.50;;;;;;5038718;28;20025;-81
2020/12/01 11:21:25;;;;;;;55.85;5.95;;;8.60;94.50;;;;;;5056519;28;20146;-81
2020/12/01 11:23:51;;;;;;;44.22;5.68;;;8.60;94.40;;;;;;5056561;28;20478;-81
2020/12/01 11:26:20;;;;;;;43.25;5.10;;;8.60;94.40;;;;;;5056434;28;20548;-81
2020/12/01 11:28:48;;;;;;;49.30;5.47;;;8.60;94.40;;;;;;5038494;28;20163;-81
2020/12/01 11:31:14;;;;;;;51.28;5.82;;;8.60;94.40;;;;;;5056428;28;20045;-81
2020/12/01 11:33:39;;;;;;;46.45;5.70;;;8.60;94.40;;;;;;5038692;28;20036;-81
2020/12/01 11:36:06;;;;;;;49.53;6.57;;;8.60;94.50;;;;;;5021996;28;20029;-81
2020/12/01 11:38:32;;;;;;;43.83;5.45;;;8.60;94.40;;;;;;5021920;28;20393;-77
2020/12/01 11:40:57;;;;;;;47.67;6.20;;;8.60;94.20;;;;;;5038152;28;20474;-76
2020/12/01 11:43:23;;;;;;;35.97;4.25;;;8.70;94.20;;;;;;5022225;28;20040;-77
2020/12/01 11:45:49;;;;;;;46.10;4.97;;;8.70;94.20;;;;;;5038051;28;20389;-77
2020/12/01 11:48:14;;;;;;;42.85;5.10;;;8.60;94.10;;;;;;5038374;28;20540;-76
2020/12/01 11:50:40;;;;;;;44.25;6.10;;;8.60;94.10;;;;;;5021681;28;20036;-76
2020/12/01 11:53:05;;;;;;;40.95;4.47;;;8.70;94.10;;;;;;5038250;28;20033;-76
2020/12/01 11:55:31;;;;;;;46.50;4.80;;;8.70;94.00;;;;;;5038325;28;20381;-76
2020/12/01 11:57:56;;;;;;;43.03;4.78;;;8.70;94.00;;;;;;5037100;28;20041;-76
2020/12/01 12:00:25;;;;;;;45.15;5.63;;;8.70;94.00;;;;;;5055995;28;20047;-76
2020/12/01 12:02:51;;;;;;;44.20;5.72;;;8.80;93.90;;;;;;5055752;28;20028;-76
2020/12/01 12:05:17;;;;;;;45.25;5.45;;;8.80;93.80;;;;;;5055763;28;20029;-76
2020/12/01 12:07:43;;;;;;;40.08;5.30;;;8.80;94.00;;;;;;5055550;28;20040;-76
2020/12/01 12:10:09;;;;;;;32.30;4.07;;;8.70;93.70;;;;;;5037788;28;20029;-79
2020/12/01 12:12:35;;;;;;;36.88;5.57;;;8.80;93.60;;;;;;5055488;28;20064;-77
2020/12/01 12:15:00;;;;;;;45.95;4.50;;;8.80;93.60;;;;;;5020950;28;20449;-76
2020/12/01 12:17:26;;;;;;;41.53;6.18;;;8.80;93.50;;;;;;5037538;28;20032;-77
2020/12/01 12:19:52;;;;;;;35.55;4.45;;;8.80;93.40;;;;;;5020530;28;20029;-76
2020/12/01 12:22:17;;;;;;;30.20;4.28;;;8.80;93.40;;;;;;5037295;28;20017;-75
2020/12/01 12:24:43;;;;;;;41.80;5.28;;;8.80;93.30;;;;;;5055414;28;20488;-76
2020/12/01 12:27:09;;;;;;;35.60;4.25;;;8.80;93.20;;;;;;5037480;28;20112;-76
2020/12/01 12:29:34;;;;;;;44.33;4.40;;;8.90;93.10;;;;;;5037509;28;20125;-76
2020/12/01 12:32:00;;;;;;;40.85;4.30;;;8.80;93.00;;;;;;5037283;28;20077;-76
2020/12/01 12:34:25;;;;;;;45.22;5.18;;;8.90;93.00;;;;;;5037265;28;20033;-76
2020/12/01 12:36:53;;;;;;;35.33;4.50;;;8.90;93.00;;;;;;5017361;28;20026;-76
2020/12/01 12:39:18;;;;;;;33.70;5.10;;;8.90;93.00;;;;;;5017718;28;20033;-76
2020/12/01 12:41:44;;;;;;;36.95;4.50;;;8.90;92.90;;;;;;5017452;28;20033;-76
2020/12/01 12:44:10;;;;;;;29.52;4.32;;;8.90;92.90;;;;;;5017455;28;20438;-76
2020/12/01 12:46:37;;;;;;;35.90;5.45;;;8.90;92.90;;;;;;5017346;28;20390;-76
2020/12/01 12:49:04;;;;;;;38.38;4.28;;;8.90;92.80;;;;;;5033723;28;20030;-76
2020/12/01 12:51:30;;;;;;;48.10;5.20;;;9.00;92.90;;;;;;5022958;28;20040;-76
2020/12/01 12:53:55;;;;;;;41.58;4.80;;;8.90;92.80;;;;;;5034889;28;20026;-76
2020/12/01 12:56:23;;;;;;;38.10;4.93;;;8.90;92.70;;;;;;5017224;28;20449;-76
2020/12/01 12:58:48;;;;;;;48.67;5.57;;;8.90;92.70;;;;;;5034792;28;20095;-76
2020/12/01 13:01:14;;;;;;;34.13;4.20;;;9.00;92.70;;;;;;5034825;28;20068;-76
2020/12/01 13:03:40;;;;;;;37.13;5.00;;;8.90;92.60;;;;;;5034866;28;20071;-76
2020/12/01 13:06:05;;;;;;;46.90;4.78;;;9.00;92.60;;;;;;5033921;28;20478;-77
2020/12/01 13:08:31;;;;;;;32.00;3.67;;;8.90;92.60;;;;;;5050866;28;20031;-76
2020/12/01 13:10:56;;;;;;;50.20;4.97;;;9.00;92.60;;;;;;5054338;28;20041;-76
2020/12/01 13:13:22;;;;;;;40.28;4.47;;;9.00;92.40;;;;;;5054467;28;20377;-76
2020/12/01 13:15:48;;;;;;;33.42;4.22;;;9.00;92.30;;;;;;5036944;28;20548;-76
2020/12/01 13:18:13;;;;;;;36.28;4.68;;;9.00;92.60;;;;;;5020163;28;20489;-78
2020/12/01 13:20:39;;;;;;;48.53;4.85;;;9.00;92.30;;;;;;5036423;28;20037;-76
2020/12/01 13:23:05;;;;;;;36.13;4.70;;;9.10;92.40;;;;;;5019288;28;20025;-77
2020/12/01 13:25:30;;;;;;;41.28;4.68;;;9.10;92.30;;;;;;5019575;28;20445;-76
2020/12/01 13:27:56;;;;;;;30.42;3.97;;;9.10;92.30;;;;;;5053944;28;20040;-76
2020/12/01 13:30:22;;;;;;;41.08;4.20;;;9.10;92.10;;;;;;5036202;28;20036;-76
2020/12/01 13:32:48;;;;;;;33.10;3.90;;;9.10;91.90;;;;;;4999929;28;20057;-76
2020/12/01 13:35:15;;;;;;;27.55;4.93;;;9.10;91.80;;;;;;5013021;28;20391;-77
2020/12/01 13:37:42;;;;;;;41.75;4.70;;;9.10;91.90;;;;;;5012940;28;20034;-76
2020/12/01 13:40:10;;;;;;;35.95;4.07;;;9.10;91.60;;;;;;4996755;28;20112;-78
2020/12/01 13:42:36;;;;;;;31.23;4.28;;;9.10;91.60;;;;;;5014319;28;20105;-79
2020/12/01 13:45:03;;;;;;;27.63;4.35;;;9.00;91.70;;;;;;5014352;28;20058;-80
2020/12/01 13:47:28;;;;;;;36.22;4.22;;;9.10;91.70;;;;;;5014219;28;20053;-80